createdAt,value
2023-02-14T00:02:25.822Z,98350.22
2023-02-14T00:04:57.389Z,98351.91
2023-02-14T00:07:25.828Z,98353.19
2023-02-14T00:09:55.015Z,98359.38
2023-02-14T00:12:23.727Z,98353.88
2023-02-14T00:15:09.600Z,98349.97
2023-02-14T00:17:38.549Z,98335.03
2023-02-14T00:20:09.374Z,98334.91
2023-02-14T00:22:39.230Z,98342.63
2023-02-14T00:25:08.165Z,98341.38
2023-02-14T00:27:36.898Z,98329.84
2023-02-14T00:30:08.036Z,98334.34
2023-02-14T00:32:39.663Z,98327.31
2023-02-14T00:35:10.883Z,98341.09
2023-02-14T00:37:42.540Z,98352.78
2023-02-14T00:40:11.335Z,98352.50
2023-02-14T00:42:42.280Z,98350.69
2023-02-14T00:45:11.017Z,98350.97
2023-02-14T00:47:40.182Z,98350.50
2023-02-14T00:50:10.585Z,98347.28
2023-02-14T00:52:40.516Z,98351.50
2023-02-14T00:55:09.173Z,98353.75
2023-02-14T00:57:37.921Z,98351.78
2023-02-14T01:00:08.572Z,98340.81
2023-02-14T01:02:38.267Z,98349.25
2023-02-14T01:05:07.347Z,98344.03
2023-02-14T01:07:39.362Z,98343.34
2023-02-14T01:10:08.539Z,98340.81
2023-02-14T01:12:37.424Z,98335.75
2023-02-14T01:15:06.222Z,98343.19
2023-02-14T01:17:35.378Z,98339.53
2023-02-14T01:20:03.765Z,98339.13
2023-02-14T01:22:37.470Z,98338.00
2023-02-14T01:25:08.560Z,98332.09
2023-02-14T01:27:37.018Z,98341.22
2023-02-14T01:30:07.096Z,98347.56
2023-02-14T01:32:36.562Z,98355.72
2023-02-14T01:35:07.675Z,98357.25
2023-02-14T01:37:36.520Z,98348.25
2023-02-14T01:40:08.877Z,98357.84
2023-02-14T01:42:38.169Z,98357.69
2023-02-14T01:45:15.869Z,98349.13
2023-02-14T01:47:47.695Z,98350.09
2023-02-14T01:50:23.147Z,98351.81
2023-02-14T01:52:56.094Z,98356.00
2023-02-14T01:55:30.310Z,98358.38
2023-02-14T01:58:03.318Z,98359.38
2023-02-14T02:00:49.289Z,98367.66
2023-02-14T02:03:20.860Z,98361.63
2023-02-14T02:05:53.479Z,98360.09
2023-02-14T02:08:24.054Z,98359.78
2023-02-14T02:10:53.712Z,98352.22
2023-02-14T02:13:23.534Z,98346.88
2023-02-14T02:16:23.316Z,98342.78
2023-02-14T02:19:05.710Z,98338.28
2023-02-14T02:22:00.181Z,98332.38
2023-02-14T02:24:34.984Z,98334.19
2023-02-14T02:27:26.168Z,98330.28
2023-02-14T02:30:42.749Z,98329.28
2023-02-14T02:33:56.202Z,98324.94
2023-02-14T02:36:46.742Z,98325.06
2023-02-14T02:39:30.650Z,98320.00
2023-02-14T02:42:07.819Z,98323.25
2023-02-14T02:44:45.885Z,98319.44
2023-02-14T02:47:23.454Z,98315.63
2023-02-14T02:50:18.212Z,98316.91
2023-02-14T02:53:04.517Z,98314.09
2023-02-14T02:56:02.913Z,98309.03
2023-02-14T02:58:38.276Z,98313.78
2023-02-14T03:01:11.321Z,98324.38
2023-02-14T03:04:00.613Z,98321.13
2023-02-14T03:06:31.040Z,98323.38
2023-02-14T03:09:11.946Z,98296.91
2023-02-14T03:11:47.674Z,98317.00
2023-02-14T03:14:23.645Z,98321.81
2023-02-14T03:17:04.980Z,98317.28
2023-02-14T03:20:14.778Z,98315.50
2023-02-14T03:22:50.612Z,98322.38
2023-02-14T03:25:38.214Z,98324.75
2023-02-14T03:28:15.944Z,98321.69
2023-02-14T03:30:59.813Z,98324.06
2023-02-14T03:33:33.103Z,98324.06
2023-02-14T03:36:07.862Z,98321.28
2023-02-14T03:38:42.821Z,98314.66
2023-02-14T03:41:18.565Z,98316.34
2023-02-14T03:43:51.020Z,98323.78
2023-02-14T03:46:26.615Z,98308.47
2023-02-14T03:48:58.908Z,98323.34
2023-02-14T03:51:34.756Z,98318.72
2023-02-14T03:54:05.893Z,98316.06
2023-02-14T03:56:41.516Z,98317.16
2023-02-14T03:59:15.228Z,98316.47
2023-02-14T04:01:50.599Z,98316.91
2023-02-14T04:04:22.221Z,98323.50
2023-02-14T04:06:50.834Z,98316.03
2023-02-14T04:09:20.330Z,98311.84
2023-02-14T04:11:50.900Z,98317.28
2023-02-14T04:14:19.751Z,98317.72
2023-02-14T04:17:05.830Z,98315.72
2023-02-14T04:19:35.105Z,98320.38
2023-02-14T04:22:03.390Z,98311.13
2023-02-14T04:24:32.663Z,98285.78
2023-02-14T04:27:11.660Z,98308.16
2023-02-14T04:29:45.085Z,98311.75
2023-02-14T04:32:16.069Z,98309.00
2023-02-14T04:34:44.735Z,98314.47
2023-02-14T04:37:14.597Z,98311.66
2023-02-14T04:39:43.146Z,98308.69
2023-02-14T04:42:14.172Z,98299.69
2023-02-14T04:44:42.798Z,98300.28
2023-02-14T04:47:11.573Z,98302.69
2023-02-14T04:49:40.359Z,98296.91
2023-02-14T04:52:08.718Z,98299.44
2023-02-14T04:54:38.477Z,98295.06
2023-02-14T04:57:06.817Z,98293.81
2023-02-14T04:59:37.296Z,98301.41
2023-02-14T05:02:05.660Z,98298.59
2023-02-14T05:04:35.078Z,98292.41
2023-02-14T05:07:03.380Z,98289.00
2023-02-14T05:09:32.764Z,98295.03
2023-02-14T05:12:01.050Z,98297.88
2023-02-14T05:14:29.959Z,98307.00
2023-02-14T05:17:00.476Z,98295.72
2023-02-14T05:19:28.814Z,98301.75
2023-02-14T05:21:57.739Z,98291.94
2023-02-14T05:24:26.124Z,98295.44
2023-02-14T05:26:55.445Z,98297.84
2023-02-14T05:29:24.142Z,98292.97
2023-02-14T05:31:52.581Z,98295.47
2023-02-14T05:34:22.791Z,98291.81
2023-02-14T05:36:51.174Z,98296.47
2023-02-14T05:39:20.386Z,98297.31
2023-02-14T05:41:49.253Z,98298.72
2023-02-14T05:44:17.488Z,98298.00
2023-02-14T05:46:46.222Z,98300.50
2023-02-14T05:49:14.489Z,98289.19
2023-02-14T05:51:44.695Z,98303.69
2023-02-14T05:54:13.986Z,98302.69
2023-02-14T05:56:42.334Z,98303.59
2023-02-14T05:59:11.377Z,98267.72
2023-02-14T06:01:39.684Z,98299.69
2023-02-14T06:04:08.922Z,98305.72
2023-02-14T06:06:37.216Z,98309.69
2023-02-14T06:09:07.724Z,98299.09
2023-02-14T06:11:36.065Z,98302.28
2023-02-14T06:14:05.594Z,98307.63
2023-02-14T06:16:34.345Z,98305.13
2023-02-14T06:19:03.042Z,98299.91
2023-02-14T06:21:32.198Z,98307.19
2023-02-14T06:24:00.522Z,98309.00
2023-02-14T06:26:30.901Z,98311.22
2023-02-14T06:29:00.266Z,98314.16
2023-02-14T06:31:28.863Z,98314.50
2023-02-14T06:33:58.068Z,98315.34
2023-02-14T06:36:27.302Z,98301.81
2023-02-14T06:38:55.687Z,98310.44
2023-02-14T06:41:24.046Z,98313.56
2023-02-14T06:43:54.170Z,98308.38
2023-02-14T06:46:22.953Z,98323.28
2023-02-14T06:48:51.304Z,98323.56
2023-02-14T06:51:19.785Z,98319.28
2023-02-14T06:53:48.583Z,98310.97
2023-02-14T06:56:16.891Z,98306.09
2023-02-14T06:58:45.537Z,98304.56
2023-02-14T07:01:15.223Z,98305.25
2023-02-14T07:03:44.226Z,98310.00
2023-02-14T07:06:13.000Z,98309.13
2023-02-14T07:08:42.317Z,98303.25
2023-02-14T07:11:10.680Z,98303.56
2023-02-14T07:13:39.041Z,98303.13
2023-02-14T07:16:07.791Z,98287.97
2023-02-14T07:18:38.165Z,98313.28
2023-02-14T07:21:07.325Z,98296.25
2023-02-14T07:23:36.057Z,98299.19
2023-02-14T07:26:05.062Z,98303.78
2023-02-14T07:28:34.102Z,98297.66
2023-02-14T07:31:04.036Z,98299.50
2023-02-14T07:33:32.585Z,98273.81
2023-02-14T07:36:05.877Z,98291.84
2023-02-14T07:38:34.347Z,98291.06
2023-02-14T07:41:03.539Z,98283.75
2023-02-14T07:43:34.388Z,98296.69
2023-02-14T07:46:03.421Z,98296.28
2023-02-14T07:48:34.346Z,98290.63
2023-02-14T07:51:04.187Z,98289.31
2023-02-14T07:53:33.418Z,98303.88
2023-02-14T07:56:02.309Z,98301.72
2023-02-14T07:58:30.610Z,98299.88
2023-02-14T08:00:59.812Z,98299.38
2023-02-14T08:03:28.372Z,98290.84
2023-02-14T08:05:58.604Z,98287.19
2023-02-14T08:08:30.504Z,98280.09
2023-02-14T08:11:00.170Z,98283.75
2023-02-14T08:13:28.661Z,98283.91
2023-02-14T08:16:07.850Z,98287.56
2023-02-14T08:18:40.068Z,98284.63
2023-02-14T08:21:11.236Z,98285.16
2023-02-14T08:23:40.984Z,98276.50
2023-02-14T08:26:09.434Z,98288.75
2023-02-14T08:28:38.250Z,98281.63
2023-02-14T08:31:06.967Z,98276.88
2023-02-14T08:33:35.735Z,98286.03
2023-02-14T08:36:04.993Z,98289.00
2023-02-14T08:38:33.787Z,98281.69
2023-02-14T08:41:07.602Z,98287.28
2023-02-14T08:43:37.148Z,98282.97
2023-02-14T08:46:05.791Z,98285.78
2023-02-14T08:48:39.060Z,98288.31
2023-02-14T08:51:09.013Z,98290.13
2023-02-14T08:53:37.961Z,98280.84
2023-02-14T08:56:10.543Z,98290.16
2023-02-14T08:58:40.013Z,98286.34
2023-02-14T09:01:10.527Z,98293.94
2023-02-14T09:03:39.211Z,98295.09
2023-02-14T09:06:09.797Z,98292.69
2023-02-14T09:08:40.626Z,98275.00
2023-02-14T09:11:11.768Z,98282.31
2023-02-14T09:13:40.602Z,98286.38
2023-02-14T09:16:12.196Z,98292.00
2023-02-14T09:18:41.727Z,98274.69
2023-02-14T09:21:11.958Z,98297.75
2023-02-14T09:23:41.127Z,98294.94
2023-02-14T09:26:13.479Z,98291.66
2023-02-14T09:28:42.550Z,98297.72
2023-02-14T09:31:12.971Z,98297.31
2023-02-14T09:33:42.372Z,98291.13
2023-02-14T09:36:28.971Z,98294.34
2023-02-14T09:38:57.272Z,98292.66
2023-02-14T09:41:50.815Z,98289.44
2023-02-14T09:44:28.783Z,98267.38
2023-02-14T09:47:06.196Z,98287.22
2023-02-14T09:49:41.912Z,98288.34
2023-02-14T09:52:16.329Z,98286.50
2023-02-14T09:54:49.994Z,98293.00
2023-02-14T09:57:27.840Z,98285.09
2023-02-14T10:00:02.201Z,98285.09
2023-02-14T10:02:44.779Z,98286.22
2023-02-14T10:05:17.056Z,98293.84
2023-02-14T10:07:56.804Z,98292.00
2023-02-14T10:10:31.228Z,98293.25
2023-02-14T10:13:08.670Z,98286.34
2023-02-14T10:15:40.993Z,98296.59
2023-02-14T10:18:14.755Z,98296.34
2023-02-14T10:20:45.725Z,98287.75
2023-02-14T10:23:28.414Z,98288.56
2023-02-14T10:26:02.365Z,98277.28
2023-02-14T10:28:38.493Z,98287.81
2023-02-14T10:31:20.402Z,98279.06
2023-02-14T10:33:57.402Z,98283.19
2023-02-14T10:36:45.212Z,98277.19
2023-02-14T10:39:34.838Z,98290.16
2023-02-14T10:42:12.735Z,98280.00
2023-02-14T10:44:49.205Z,98285.06
2023-02-14T10:47:31.121Z,98280.59
2023-02-14T10:50:12.567Z,98265.97
2023-02-14T10:52:47.117Z,98231.38
2023-02-14T10:55:32.019Z,98267.91
2023-02-14T10:58:05.066Z,98257.44
2023-02-14T11:00:38.952Z,98253.63
2023-02-14T11:03:10.757Z,98222.50
2023-02-14T11:05:46.164Z,98240.72
2023-02-14T11:08:17.152Z,98228.66
2023-02-14T11:10:46.562Z,98236.38
2023-02-14T11:13:37.414Z,98239.72
2023-02-14T11:16:09.692Z,98238.56
2023-02-14T11:18:41.717Z,98235.53
2023-02-14T11:21:12.042Z,98232.69
2023-02-14T11:23:43.041Z,98234.53
2023-02-14T11:26:18.449Z,98229.44
2023-02-14T11:28:55.073Z,98225.50
2023-02-14T11:31:30.200Z,98209.09
2023-02-14T11:34:00.326Z,98224.91
2023-02-14T11:36:30.605Z,98213.72
2023-02-14T11:39:06.853Z,98221.41
2023-02-14T11:41:49.750Z,98210.84
2023-02-14T11:44:23.481Z,98207.75
2023-02-14T11:46:54.590Z,98217.97
2023-02-14T11:49:29.586Z,98202.31
2023-02-14T11:51:59.897Z,98197.59
2023-02-14T11:54:33.264Z,98197.91
2023-02-14T11:57:08.460Z,98197.75
2023-02-14T11:59:43.349Z,98190.94
2023-02-14T12:02:26.015Z,98183.88
2023-02-14T12:04:57.940Z,98185.88
2023-02-14T12:07:30.900Z,98170.25
2023-02-14T12:10:20.742Z,98182.13
2023-02-14T12:13:02.209Z,98173.31
2023-02-14T12:15:37.976Z,98169.31
2023-02-14T12:18:48.065Z,98179.03
2023-02-14T12:21:28.520Z,98166.34
2023-02-14T12:24:04.348Z,98165.88
2023-02-14T12:26:36.603Z,98172.13
2023-02-14T12:29:15.087Z,98160.78
2023-02-14T12:31:44.607Z,98160.31
2023-02-14T12:34:17.810Z,98163.63
2023-02-14T12:37:11.296Z,98160.94
2023-02-14T12:39:49.313Z,98159.78
2023-02-14T12:42:34.781Z,98155.13
2023-02-14T12:45:12.088Z,98151.91
2023-02-14T12:47:49.724Z,98154.25
2023-02-14T12:50:38.438Z,98143.34
2023-02-14T12:53:30.448Z,98134.31
2023-02-14T12:56:08.223Z,98140.44
2023-02-14T12:58:45.702Z,98141.97
2023-02-14T13:01:38.956Z,98132.06
2023-02-14T13:04:28.353Z,98137.13
2023-02-14T13:07:04.750Z,98123.88
2023-02-14T13:09:42.039Z,98122.34
2023-02-14T13:12:25.452Z,98124.09
2023-02-14T13:15:03.135Z,98121.81
2023-02-14T13:17:38.419Z,98120.81
2023-02-14T13:20:25.889Z,98121.19
2023-02-14T13:22:57.402Z,98119.66
2023-02-14T13:25:31.765Z,98116.38
2023-02-14T13:28:03.986Z,98112.78
2023-02-14T13:30:34.867Z,98115.63
2023-02-14T13:33:08.846Z,98114.03
2023-02-14T13:35:37.982Z,98115.84
2023-02-14T13:38:15.188Z,98113.25
2023-02-14T13:40:47.214Z,98118.19
2023-02-14T13:43:49.035Z,98118.84
2023-02-14T13:46:20.972Z,98115.66
2023-02-14T13:49:04.461Z,98111.91
2023-02-14T13:51:48.656Z,98109.75
2023-02-14T13:54:32.723Z,98103.72
2023-02-14T13:57:05.425Z,98099.38
2023-02-14T13:59:35.827Z,98099.81
2023-02-14T14:02:32.930Z,98100.97
2023-02-14T14:05:02.702Z,98097.03
2023-02-14T14:07:31.352Z,98091.16
2023-02-14T14:10:03.552Z,98090.34
2023-02-14T14:12:39.805Z,98092.88
2023-02-14T14:15:14.379Z,98099.25
2023-02-14T14:17:45.998Z,98095.03
2023-02-14T14:20:39.529Z,98090.50
2023-02-14T14:23:31.980Z,98085.47
2023-02-14T14:26:03.623Z,98075.06
2023-02-14T14:28:34.067Z,98083.72
2023-02-14T14:31:03.578Z,98083.28
2023-02-14T14:33:33.976Z,98082.56
2023-02-14T14:36:08.251Z,98081.19
2023-02-14T14:38:48.006Z,98075.75
2023-02-14T14:41:18.675Z,98073.53
2023-02-14T14:43:48.295Z,98068.25
2023-02-14T14:46:18.551Z,98069.66
2023-02-14T14:48:50.092Z,98065.59
2023-02-14T14:51:25.169Z,98065.53
2023-02-14T14:53:57.066Z,98066.44
2023-02-14T14:56:29.968Z,98059.25
2023-02-14T14:58:58.974Z,98056.19
2023-02-14T15:01:34.555Z,98049.22
2023-02-14T15:04:13.368Z,98050.06
2023-02-14T15:06:42.528Z,98046.47
2023-02-14T15:09:16.656Z,98050.44
2023-02-14T15:12:05.291Z,98046.94
2023-02-14T15:14:36.752Z,98053.03
2023-02-14T15:17:07.501Z,98051.25
2023-02-14T15:19:41.721Z,98048.44
2023-02-14T15:22:21.642Z,98046.91
2023-02-14T15:24:51.015Z,98049.59
2023-02-14T15:27:23.582Z,98050.53
2023-02-14T15:29:59.004Z,98051.22
2023-02-14T15:32:31.728Z,98057.50
2023-02-14T15:35:02.265Z,98053.28
2023-02-14T15:37:31.391Z,98051.13
2023-02-14T15:40:00.874Z,98040.44
2023-02-14T15:42:32.972Z,98038.03
2023-02-14T15:45:18.677Z,98041.28
2023-02-14T15:47:51.671Z,98037.00
2023-02-14T15:50:24.248Z,98029.34
2023-02-14T15:52:56.273Z,98047.69
2023-02-14T15:55:28.906Z,98044.25
2023-02-14T15:58:02.045Z,98052.59
2023-02-14T16:00:31.704Z,98055.88
2023-02-14T16:03:03.759Z,98049.78
2023-02-14T16:05:32.233Z,98049.97
2023-02-14T16:08:03.965Z,98053.09
2023-02-14T16:10:34.502Z,98050.72
2023-02-14T16:13:06.800Z,98057.69
2023-02-14T16:15:36.616Z,98055.69
2023-02-14T16:18:17.429Z,98049.34
2023-02-14T16:20:47.029Z,98058.31
2023-02-14T16:23:21.153Z,98055.78
2023-02-14T16:25:50.445Z,98055.78
2023-02-14T16:28:21.771Z,98053.59
2023-02-14T16:30:56.414Z,98055.09
2023-02-14T16:33:27.570Z,98058.75
2023-02-14T16:36:02.590Z,98053.56
2023-02-14T16:38:30.983Z,98054.72
2023-02-14T16:40:59.799Z,98057.09
2023-02-14T16:43:29.750Z,98056.09
2023-02-14T16:45:59.092Z,98061.41
2023-02-14T16:48:27.436Z,98067.44
2023-02-14T16:50:57.226Z,98066.97
2023-02-14T16:53:28.743Z,98062.09
2023-02-14T16:55:58.504Z,98067.34
2023-02-14T16:58:34.606Z,98063.00
2023-02-14T17:01:04.512Z,98060.91
2023-02-14T17:03:32.857Z,98069.31
2023-02-14T17:06:03.249Z,98070.72
2023-02-14T17:08:32.305Z,98065.50
2023-02-14T17:11:02.836Z,98069.03
2023-02-14T17:13:37.770Z,98074.53
2023-02-14T17:16:10.101Z,98057.94
2023-02-14T17:18:40.674Z,98066.03
2023-02-14T17:21:09.533Z,98067.59
2023-02-14T17:23:37.836Z,98065.78
2023-02-14T17:26:07.072Z,98057.41
2023-02-14T17:28:37.226Z,98069.72
2023-02-14T17:31:06.004Z,98067.72
2023-02-14T17:33:36.232Z,98064.22
2023-02-14T17:36:06.649Z,98065.78
2023-02-14T17:38:36.385Z,98064.69
2023-02-14T17:41:12.733Z,98061.91
2023-02-14T17:43:43.041Z,98062.88
2023-02-14T17:46:12.584Z,98057.00
2023-02-14T17:48:41.524Z,98053.75
2023-02-14T17:51:11.805Z,98057.25
2023-02-14T17:53:41.547Z,98064.44
2023-02-14T17:56:12.020Z,98057.09
2023-02-14T17:58:41.071Z,98064.44
2023-02-14T18:01:12.742Z,98070.22
2023-02-14T18:03:43.119Z,98060.50
2023-02-14T18:06:12.082Z,98053.16
2023-02-14T18:08:43.108Z,98054.00
2023-02-14T18:11:13.989Z,98056.25
2023-02-14T18:13:44.826Z,98052.19
2023-02-14T18:16:16.306Z,98054.00
2023-02-14T18:18:45.869Z,98045.16
2023-02-14T18:21:17.508Z,98043.06
2023-02-14T18:23:46.089Z,98055.59
2023-02-14T18:26:16.533Z,98049.81
2023-02-14T18:28:45.483Z,98043.63
2023-02-14T18:31:17.108Z,98045.75
2023-02-14T18:33:46.589Z,98047.47
2023-02-14T18:36:16.770Z,98039.19
2023-02-14T18:38:47.407Z,98049.47
2023-02-14T18:41:17.755Z,98044.47
2023-02-14T18:43:47.091Z,98047.69
2023-02-14T18:46:19.234Z,98046.16
2023-02-14T18:48:48.227Z,98052.38
2023-02-14T18:51:19.580Z,98044.22
2023-02-14T18:53:52.173Z,98042.53
2023-02-14T18:56:23.560Z,98041.94
2023-02-14T18:58:56.240Z,98042.09
2023-02-14T19:01:29.212Z,98039.13
2023-02-14T19:04:01.055Z,98033.69
2023-02-14T19:06:32.000Z,98034.56
2023-02-14T19:09:01.427Z,98035.78
2023-02-14T19:11:32.690Z,98040.38
2023-02-14T19:14:03.294Z,98024.91
2023-02-14T19:16:37.161Z,98035.28
2023-02-14T19:19:06.739Z,98031.91
2023-02-14T19:21:36.712Z,98044.53
2023-02-14T19:24:07.920Z,98038.09
2023-02-14T19:26:40.098Z,98029.00
2023-02-14T19:29:11.693Z,98037.41
2023-02-14T19:31:45.152Z,98038.41
2023-02-14T19:34:20.358Z,98037.41
2023-02-14T19:36:50.269Z,98039.56
2023-02-14T19:39:20.625Z,98035.06
2023-02-14T19:41:48.958Z,98031.50
2023-02-14T19:44:19.258Z,98034.75
2023-02-14T19:46:48.898Z,98033.91
2023-02-14T19:49:19.690Z,98029.81
2023-02-14T19:51:51.144Z,98022.38
2023-02-14T19:54:21.903Z,98028.63
2023-02-14T19:56:50.410Z,98023.28
2023-02-14T19:59:22.945Z,98035.22
2023-02-14T20:01:54.117Z,98031.44
2023-02-14T20:04:25.444Z,98019.97
2023-02-14T20:06:54.255Z,98026.47
2023-02-14T20:09:24.495Z,98028.72
2023-02-14T20:11:54.702Z,98024.94
2023-02-14T20:14:25.932Z,98024.94
2023-02-14T20:16:57.635Z,98020.59
2023-02-14T20:19:29.731Z,98019.13
2023-02-14T20:21:58.461Z,98019.41
2023-02-14T20:24:28.889Z,98021.91
2023-02-14T20:26:58.465Z,98009.19
2023-02-14T20:29:27.447Z,98007.22
2023-02-14T20:32:00.394Z,98015.34
2023-02-14T20:34:29.287Z,98002.88
2023-02-14T20:36:59.623Z,98005.84
2023-02-14T20:39:30.465Z,98002.63
2023-02-14T20:41:59.924Z,98000.38
2023-02-14T20:44:28.852Z,98000.53
2023-02-14T20:47:00.065Z,97994.03
2023-02-14T20:49:30.647Z,98000.38
2023-02-14T20:52:00.124Z,97994.16
2023-02-14T20:54:30.090Z,98002.72
2023-02-14T20:56:59.421Z,97998.34
2023-02-14T20:59:29.223Z,97994.41
2023-02-14T21:02:00.222Z,97995.25
2023-02-14T21:04:30.610Z,97991.16
2023-02-14T21:07:00.353Z,97986.25
2023-02-14T21:09:29.408Z,97985.88
2023-02-14T21:11:58.398Z,97973.09
2023-02-14T21:14:28.103Z,97982.53
2023-02-14T21:16:56.508Z,97973.81
2023-02-14T21:19:29.974Z,97982.63
2023-02-14T21:21:58.925Z,97977.59
2023-02-14T21:24:27.732Z,97973.53
2023-02-14T21:26:56.064Z,97974.81
2023-02-14T21:29:25.321Z,97972.28
2023-02-14T21:31:54.173Z,97979.28
2023-02-14T21:34:22.708Z,97971.16
2023-02-14T21:36:56.539Z,97961.78
2023-02-14T21:39:27.517Z,97957.81
2023-02-14T21:41:56.388Z,97954.31
2023-02-14T21:44:38.654Z,97955.19
2023-02-14T21:47:08.152Z,97954.88
2023-02-14T21:49:53.933Z,97943.81
2023-02-14T21:52:24.650Z,97941.97
2023-02-14T21:54:53.399Z,97947.84
2023-02-14T21:57:21.687Z,97942.94
2023-02-14T21:59:50.823Z,97933.41
2023-02-14T22:02:19.142Z,97933.53
2023-02-14T22:04:47.913Z,97936.34
2023-02-14T22:07:16.734Z,97929.63
2023-02-14T22:09:46.377Z,97931.31
2023-02-14T22:12:15.365Z,97933.31
2023-02-14T22:14:44.190Z,97941.63
2023-02-14T22:17:13.155Z,97939.53
2023-02-14T22:19:41.456Z,97945.00
2023-02-14T22:22:10.722Z,97931.06
2023-02-14T22:24:39.389Z,97925.59
2023-02-14T22:27:09.049Z,97936.69
2023-02-14T22:29:38.596Z,97929.09
2023-02-14T22:32:07.039Z,97919.84
2023-02-14T22:34:36.201Z,97913.00
2023-02-14T22:37:05.057Z,97922.38
2023-02-14T22:39:33.534Z,97918.19
2023-02-14T22:42:06.730Z,97910.47
2023-02-14T22:44:36.566Z,97918.03
2023-02-14T22:47:04.915Z,97916.38
2023-02-14T22:49:33.948Z,97914.84
2023-02-14T22:52:02.231Z,97922.69
2023-02-14T22:54:31.290Z,97916.50
2023-02-14T22:57:00.107Z,97913.00
2023-02-14T22:59:31.674Z,97912.56
2023-02-14T23:02:02.300Z,97907.78
2023-02-14T23:04:31.668Z,97914.25
2023-02-14T23:06:59.956Z,97910.28
2023-02-14T23:09:29.451Z,97897.69
2023-02-14T23:11:57.809Z,97899.91
2023-02-14T23:14:44.875Z,97899.06
2023-02-14T23:17:34.041Z,97899.63
2023-02-14T23:20:20.532Z,97897.94
2023-02-14T23:22:48.942Z,97895.13
2023-02-14T23:25:18.225Z,97897.25
2023-02-14T23:27:47.499Z,97897.09
2023-02-14T23:30:19.559Z,97902.44
2023-02-14T23:32:49.666Z,97898.94
2023-02-14T23:35:18.221Z,97904.84
2023-02-14T23:37:47.716Z,97901.31
2023-02-14T23:40:16.045Z,97901.34
2023-02-14T23:42:45.194Z,97901.63
2023-02-14T23:45:31.691Z,97899.94
2023-02-14T23:48:05.051Z,97905.81
2023-02-14T23:50:35.025Z,97901.34
2023-02-14T23:53:03.386Z,97899.94
2023-02-14T23:55:32.657Z,97903.63
2023-02-14T23:58:01.428Z,97896.03
